sensor_id;sensor_type;location;lat;lon;timestamp;P1;durP1;ratioP1;P2;durP2;ratioP2
4766;SDS011;2397;53.576;9.746;2022-12-07T00:01:29;20.23;;;13.30;;
4766;SDS011;2397;53.576;9.746;2022-12-07T00:03:58;17.37;;;12.17;;
4766;SDS011;2397;53.576;9.746;2022-12-07T00:06:32;16.77;;;12.73;;
4766;SDS011;2397;53.576;9.746;2022-12-07T00:09:00;16.80;;;12.80;;
4766;SDS011;2397;53.576;9.746;2022-12-07T00:11:27;18.40;;;11.73;;
4766;SDS011;2397;53.576;9.746;2022-12-07T00:13:54;16.70;;;10.67;;
4766;SDS011;2397;53.576;9.746;2022-12-07T00:16:26;18.60;;;12.80;;
4766;SDS011;2397;53.576;9.746;2022-12-07T00:18:54;16.77;;;12.30;;
4766;SDS011;2397;53.576;9.746;2022-12-07T00:21:21;20.07;;;11.50;;
4766;SDS011;2397;53.576;9.746;2022-12-07T00:23:50;16.60;;;10.47;;
4766;SDS011;2397;53.576;9.746;2022-12-07T00:26:19;13.47;;;10.30;;
4766;SDS011;2397;53.576;9.746;2022-12-07T00:28:50;15.97;;;10.30;;
4766;SDS011;2397;53.576;9.746;2022-12-07T00:31:18;17.93;;;12.00;;
4766;SDS011;2397;53.576;9.746;2022-12-07T00:33:46;15.60;;;11.20;;
4766;SDS011;2397;53.576;9.746;2022-12-07T00:36:14;16.90;;;11.80;;
4766;SDS011;2397;53.576;9.746;2022-12-07T00:38:48;15.30;;;10.03;;
4766;SDS011;2397;53.576;9.746;2022-12-07T00:41:15;17.50;;;11.27;;
4766;SDS011;2397;53.576;9.746;2022-12-07T00:43:44;16.00;;;11.40;;
4766;SDS011;2397;53.576;9.746;2022-12-07T00:46:12;16.20;;;11.27;;
4766;SDS011;2397;53.576;9.746;2022-12-07T00:48:40;20.50;;;10.00;;
4766;SDS011;2397;53.576;9.746;2022-12-07T00:51:07;17.03;;;10.80;;
4766;SDS011;2397;53.576;9.746;2022-12-07T00:53:34;18.60;;;9.67;;
4766;SDS011;2397;53.576;9.746;2022-12-07T00:58:40;16.83;;;10.10;;
4766;SDS011;2397;53.576;9.746;2022-12-07T01:01:07;12.90;;;9.60;;
4766;SDS011;2397;53.576;9.746;2022-12-07T01:03:36;13.43;;;9.67;;
4766;SDS011;2397;53.576;9.746;2022-12-07T01:06:04;18.07;;;10.27;;
4766;SDS011;2397;53.576;9.746;2022-12-07T01:08:31;20.13;;;9.90;;
4766;SDS011;2397;53.576;9.746;2022-12-07T01:13:31;12.00;;;8.50;;
4766;SDS011;2397;53.576;9.746;2022-12-07T01:15:59;14.70;;;9.17;;
4766;SDS011;2397;53.576;9.746;2022-12-07T01:18:27;12.57;;;8.80;;
4766;SDS011;2397;53.576;9.746;2022-12-07T01:21:02;10.93;;;8.73;;
4766;SDS011;2397;53.576;9.746;2022-12-07T01:23:31;13.50;;;9.50;;
4766;SDS011;2397;53.576;9.746;2022-12-07T01:26:00;18.27;;;10.03;;
4766;SDS011;2397;53.576;9.746;2022-12-07T01:28:28;15.10;;;9.50;;
4766;SDS011;2397;53.576;9.746;2022-12-07T01:30:58;17.23;;;9.50;;
4766;SDS011;2397;53.576;9.746;2022-12-07T01:33:27;16.43;;;8.97;;
4766;SDS011;2397;53.576;9.746;2022-12-07T01:36:00;20.70;;;10.07;;
4766;SDS011;2397;53.576;9.746;2022-12-07T01:38:27;13.73;;;9.30;;
4766;SDS011;2397;53.576;9.746;2022-12-07T01:40:55;15.30;;;9.23;;
4766;SDS011;2397;53.576;9.746;2022-12-07T01:43:22;16.20;;;9.30;;
4766;SDS011;2397;53.576;9.746;2022-12-07T01:45:50;12.87;;;8.50;;
4766;SDS011;2397;53.576;9.746;2022-12-07T01:48:18;13.03;;;9.30;;
4766;SDS011;2397;53.576;9.746;2022-12-07T01:50:48;15.70;;;9.83;;
4766;SDS011;2397;53.576;9.746;2022-12-07T01:53:17;10.90;;;8.43;;
4766;SDS011;2397;53.576;9.746;2022-12-07T01:55:44;17.57;;;9.63;;
4766;SDS011;2397;53.576;9.746;2022-12-07T01:58:15;11.80;;;7.60;;
4766;SDS011;2397;53.576;9.746;2022-12-07T02:00:42;11.37;;;7.50;;
4766;SDS011;2397;53.576;9.746;2022-12-07T02:05:42;12.30;;;7.90;;
4766;SDS011;2397;53.576;9.746;2022-12-07T02:08:10;10.33;;;6.93;;
4766;SDS011;2397;53.576;9.746;2022-12-07T02:10:38;10.10;;;6.10;;
4766;SDS011;2397;53.576;9.746;2022-12-07T02:13:16;10.33;;;6.50;;
4766;SDS011;2397;53.576;9.746;2022-12-07T02:15:57;10.23;;;6.80;;
4766;SDS011;2397;53.576;9.746;2022-12-07T02:21:40;10.20;;;5.80;;
4766;SDS011;2397;53.576;9.746;2022-12-07T02:24:48;8.97;;;5.40;;
4766;SDS011;2397;53.576;9.746;2022-12-07T02:30:13;7.87;;;5.67;;
4766;SDS011;2397;53.576;9.746;2022-12-07T02:38:02;10.30;;;5.67;;
4766;SDS011;2397;53.576;9.746;2022-12-07T02:40:41;13.50;;;6.20;;
4766;SDS011;2397;53.576;9.746;2022-12-07T02:45:44;9.07;;;4.90;;
4766;SDS011;2397;53.576;9.746;2022-12-07T02:48:13;7.03;;;4.80;;
4766;SDS011;2397;53.576;9.746;2022-12-07T02:50:48;7.30;;;5.07;;
4766;SDS011;2397;53.576;9.746;2022-12-07T02:56:04;11.83;;;3.70;;
4766;SDS011;2397;53.576;9.746;2022-12-07T02:58:42;6.93;;;3.90;;
4766;SDS011;2397;53.576;9.746;2022-12-07T03:01:39;6.73;;;2.77;;
4766;SDS011;2397;53.576;9.746;2022-12-07T03:07:14;3.30;;;2.57;;
4766;SDS011;2397;53.576;9.746;2022-12-07T03:09:50;9.07;;;3.23;;
4766;SDS011;2397;53.576;9.746;2022-12-07T03:12:26;4.87;;;2.57;;
4766;SDS011;2397;53.576;9.746;2022-12-07T03:15:03;2.37;;;1.80;;
4766;SDS011;2397;53.576;9.746;2022-12-07T03:17:41;3.63;;;2.10;;
4766;SDS011;2397;53.576;9.746;2022-12-07T03:20:11;8.43;;;2.53;;
4766;SDS011;2397;53.576;9.746;2022-12-07T03:22:41;3.80;;;1.87;;
4766;SDS011;2397;53.576;9.746;2022-12-07T03:25:10;4.30;;;1.57;;
4766;SDS011;2397;53.576;9.746;2022-12-07T03:28:02;3.73;;;2.17;;
4766;SDS011;2397;53.576;9.746;2022-12-07T03:33:46;7.73;;;2.10;;
4766;SDS011;2397;53.576;9.746;2022-12-07T03:36:21;3.00;;;2.10;;
4766;SDS011;2397;53.576;9.746;2022-12-07T03:38:54;3.90;;;1.67;;
4766;SDS011;2397;53.576;9.746;2022-12-07T03:41:27;6.73;;;1.97;;
4766;SDS011;2397;53.576;9.746;2022-12-07T03:43:57;3.83;;;1.77;;
4766;SDS011;2397;53.576;9.746;2022-12-07T03:46:44;7.83;;;1.93;;
4766;SDS011;2397;53.576;9.746;2022-12-07T03:52:16;6.03;;;2.13;;
4766;SDS011;2397;53.576;9.746;2022-12-07T03:57:35;4.10;;;2.00;;
4766;SDS011;2397;53.576;9.746;2022-12-07T04:00:04;5.10;;;1.77;;
4766;SDS011;2397;53.576;9.746;2022-12-07T04:02:33;5.70;;;2.43;;
4766;SDS011;2397;53.576;9.746;2022-12-07T04:05:00;4.30;;;1.80;;
4766;SDS011;2397;53.576;9.746;2022-12-07T04:07:27;6.43;;;2.17;;
4766;SDS011;2397;53.576;9.746;2022-12-07T04:09:54;3.20;;;2.00;;
4766;SDS011;2397;53.576;9.746;2022-12-07T04:12:21;6.70;;;2.00;;
4766;SDS011;2397;53.576;9.746;2022-12-07T04:14:48;2.67;;;2.10;;
4766;SDS011;2397;53.576;9.746;2022-12-07T04:17:14;5.57;;;2.17;;
4766;SDS011;2397;53.576;9.746;2022-12-07T04:19:41;3.93;;;1.80;;
4766;SDS011;2397;53.576;9.746;2022-12-07T04:22:07;12.70;;;1.90;;
4766;SDS011;2397;53.576;9.746;2022-12-07T04:24:34;3.53;;;1.93;;
4766;SDS011;2397;53.576;9.746;2022-12-07T04:27:00;2.60;;;1.60;;
4766;SDS011;2397;53.576;9.746;2022-12-07T04:29:27;5.63;;;2.40;;
4766;SDS011;2397;53.576;9.746;2022-12-07T04:31:53;2.57;;;2.00;;
4766;SDS011;2397;53.576;9.746;2022-12-07T04:34:20;1.93;;;1.83;;
4766;SDS011;2397;53.576;9.746;2022-12-07T04:36:46;7.23;;;2.27;;
4766;SDS011;2397;53.576;9.746;2022-12-07T04:39:17;3.33;;;2.10;;
4766;SDS011;2397;53.576;9.746;2022-12-07T04:41:48;4.13;;;2.50;;
4766;SDS011;2397;53.576;9.746;2022-12-07T04:44:15;3.73;;;1.80;;
4766;SDS011;2397;53.576;9.746;2022-12-07T04:46:42;6.80;;;2.37;;
4766;SDS011;2397;53.576;9.746;2022-12-07T04:49:09;3.73;;;2.80;;
4766;SDS011;2397;53.576;9.746;2022-12-07T04:51:37;2.50;;;2.30;;
4766;SDS011;2397;53.576;9.746;2022-12-07T04:54:03;2.33;;;2.13;;
4766;SDS011;2397;53.576;9.746;2022-12-07T04:56:30;4.83;;;2.37;;
4766;SDS011;2397;53.576;9.746;2022-12-07T04:58:57;2.23;;;2.03;;
4766;SDS011;2397;53.576;9.746;2022-12-07T05:01:23;2.67;;;2.47;;
4766;SDS011;2397;53.576;9.746;2022-12-07T05:03:50;2.30;;;2.10;;
4766;SDS011;2397;53.576;9.746;2022-12-07T05:06:16;5.30;;;1.90;;
4766;SDS011;2397;53.576;9.746;2022-12-07T05:08:43;3.37;;;3.07;;
4766;SDS011;2397;53.576;9.746;2022-12-07T05:11:10;5.23;;;2.40;;
4766;SDS011;2397;53.576;9.746;2022-12-07T05:14:00;3.40;;;2.97;;
4766;SDS011;2397;53.576;9.746;2022-12-07T05:16:27;3.00;;;2.67;;
4766;SDS011;2397;53.576;9.746;2022-12-07T05:18:54;3.20;;;2.50;;
4766;SDS011;2397;53.576;9.746;2022-12-07T05:21:21;2.53;;;2.33;;
4766;SDS011;2397;53.576;9.746;2022-12-07T05:23:47;3.23;;;2.93;;
4766;SDS011;2397;53.576;9.746;2022-12-07T05:26:14;3.13;;;2.93;;
4766;SDS011;2397;53.576;9.746;2022-12-07T05:28:40;3.50;;;3.20;;
4766;SDS011;2397;53.576;9.746;2022-12-07T05:31:06;4.30;;;2.90;;
4766;SDS011;2397;53.576;9.746;2022-12-07T05:33:33;3.40;;;2.57;;
4766;SDS011;2397;53.576;9.746;2022-12-07T05:35:59;4.13;;;3.53;;
4766;SDS011;2397;53.576;9.746;2022-12-07T05:38:31;4.00;;;2.60;;
4766;SDS011;2397;53.576;9.746;2022-12-07T05:41:02;2.93;;;2.63;;
4766;SDS011;2397;53.576;9.746;2022-12-07T05:43:30;4.13;;;2.93;;
4766;SDS011;2397;53.576;9.746;2022-12-07T05:45:57;6.17;;;3.30;;
4766;SDS011;2397;53.576;9.746;2022-12-07T05:48:24;2.40;;;2.20;;
4766;SDS011;2397;53.576;9.746;2022-12-07T05:50:51;3.23;;;2.57;;
4766;SDS011;2397;53.576;9.746;2022-12-07T05:53:18;3.10;;;2.70;;
4766;SDS011;2397;53.576;9.746;2022-12-07T05:55:48;5.47;;;2.83;;
4766;SDS011;2397;53.576;9.746;2022-12-07T05:58:14;3.30;;;2.60;;
4766;SDS011;2397;53.576;9.746;2022-12-07T06:00:59;7.33;;;2.97;;
4766;SDS011;2397;53.576;9.746;2022-12-07T06:03:26;4.70;;;2.90;;
4766;SDS011;2397;53.576;9.746;2022-12-07T06:05:52;4.27;;;2.93;;
4766;SDS011;2397;53.576;9.746;2022-12-07T06:08:19;5.57;;;2.97;;
4766;SDS011;2397;53.576;9.746;2022-12-07T06:10:46;9.90;;;3.00;;
4766;SDS011;2397;53.576;9.746;2022-12-07T06:13:33;3.93;;;3.37;;
4766;SDS011;2397;53.576;9.746;2022-12-07T06:15:59;4.00;;;2.50;;
4766;SDS011;2397;53.576;9.746;2022-12-07T06:18:26;7.77;;;2.17;;
4766;SDS011;2397;53.576;9.746;2022-12-07T06:20:52;7.50;;;3.10;;
4766;SDS011;2397;53.576;9.746;2022-12-07T06:23:18;4.80;;;2.70;;
4766;SDS011;2397;53.576;9.746;2022-12-07T06:25:45;2.60;;;2.00;;
4766;SDS011;2397;53.576;9.746;2022-12-07T06:28:12;3.10;;;2.00;;
4766;SDS011;2397;53.576;9.746;2022-12-07T06:30:38;5.43;;;2.47;;
4766;SDS011;2397;53.576;9.746;2022-12-07T06:33:04;3.87;;;2.10;;
4766;SDS011;2397;53.576;9.746;2022-12-07T06:35:32;11.27;;;2.30;;
4766;SDS011;2397;53.576;9.746;2022-12-07T06:38:00;2.37;;;2.07;;
4766;SDS011;2397;53.576;9.746;2022-12-07T06:40:26;7.23;;;2.07;;
4766;SDS011;2397;53.576;9.746;2022-12-07T06:42:53;6.20;;;2.40;;
4766;SDS011;2397;53.576;9.746;2022-12-07T06:45:19;3.70;;;2.23;;
4766;SDS011;2397;53.576;9.746;2022-12-07T06:47:45;2.93;;;1.90;;
4766;SDS011;2397;53.576;9.746;2022-12-07T06:50:12;2.90;;;2.17;;
4766;SDS011;2397;53.576;9.746;2022-12-07T06:52:38;1.77;;;1.67;;
4766;SDS011;2397;53.576;9.746;2022-12-07T06:55:05;3.30;;;1.90;;
4766;SDS011;2397;53.576;9.746;2022-12-07T06:57:32;9.97;;;2.37;;
4766;SDS011;2397;53.576;9.746;2022-12-07T06:59:58;6.90;;;1.63;;
4766;SDS011;2397;53.576;9.746;2022-12-07T07:02:26;3.60;;;1.50;;
4766;SDS011;2397;53.576;9.746;2022-12-07T07:04:52;4.30;;;1.77;;
4766;SDS011;2397;53.576;9.746;2022-12-07T07:07:18;4.60;;;2.00;;
4766;SDS011;2397;53.576;9.746;2022-12-07T07:09:45;8.70;;;1.93;;
4766;SDS011;2397;53.576;9.746;2022-12-07T07:12:11;1.70;;;1.60;;
4766;SDS011;2397;53.576;9.746;2022-12-07T07:14:37;2.20;;;1.70;;
4766;SDS011;2397;53.576;9.746;2022-12-07T07:17:04;5.43;;;2.17;;
4766;SDS011;2397;53.576;9.746;2022-12-07T07:19:30;3.00;;;1.70;;
4766;SDS011;2397;53.576;9.746;2022-12-07T07:21:57;8.20;;;1.93;;
4766;SDS011;2397;53.576;9.746;2022-12-07T07:24:23;1.60;;;1.50;;
4766;SDS011;2397;53.576;9.746;2022-12-07T07:26:49;2.70;;;1.37;;
4766;SDS011;2397;53.576;9.746;2022-12-07T07:29:16;6.30;;;1.87;;
4766;SDS011;2397;53.576;9.746;2022-12-07T07:31:42;8.63;;;1.97;;
4766;SDS011;2397;53.576;9.746;2022-12-07T07:34:09;3.93;;;2.00;;
4766;SDS011;2397;53.576;9.746;2022-12-07T07:36:35;4.53;;;2.63;;
4766;SDS011;2397;53.576;9.746;2022-12-07T07:39:01;4.20;;;2.10;;
4766;SDS011;2397;53.576;9.746;2022-12-07T07:41:28;4.50;;;1.90;;
4766;SDS011;2397;53.576;9.746;2022-12-07T07:43:54;3.37;;;1.97;;
4766;SDS011;2397;53.576;9.746;2022-12-07T07:46:21;4.40;;;2.00;;
4766;SDS011;2397;53.576;9.746;2022-12-07T07:48:47;2.17;;;1.50;;
4766;SDS011;2397;53.576;9.746;2022-12-07T07:51:14;1.77;;;1.60;;
4766;SDS011;2397;53.576;9.746;2022-12-07T07:53:40;3.47;;;1.83;;
4766;SDS011;2397;53.576;9.746;2022-12-07T07:56:07;4.33;;;1.63;;
4766;SDS011;2397;53.576;9.746;2022-12-07T07:58:33;2.70;;;1.63;;
4766;SDS011;2397;53.576;9.746;2022-12-07T08:01:04;5.27;;;1.47;;
4766;SDS011;2397;53.576;9.746;2022-12-07T08:03:31;2.17;;;1.93;;
4766;SDS011;2397;53.576;9.746;2022-12-07T08:05:58;6.20;;;2.33;;
4766;SDS011;2397;53.576;9.746;2022-12-07T08:08:24;6.23;;;1.97;;
4766;SDS011;2397;53.576;9.746;2022-12-07T08:10:51;1.93;;;1.83;;
4766;SDS011;2397;53.576;9.746;2022-12-07T08:13:17;5.93;;;2.00;;
4766;SDS011;2397;53.576;9.746;2022-12-07T08:15:45;1.90;;;1.80;;
4766;SDS011;2397;53.576;9.746;2022-12-07T08:18:13;7.77;;;1.80;;
4766;SDS011;2397;53.576;9.746;2022-12-07T08:20:41;1.83;;;1.70;;
4766;SDS011;2397;53.576;9.746;2022-12-07T08:23:08;3.53;;;1.83;;
4766;SDS011;2397;53.576;9.746;2022-12-07T08:25:35;6.77;;;2.50;;
4766;SDS011;2397;53.576;9.746;2022-12-07T08:28:01;2.67;;;2.43;;
4766;SDS011;2397;53.576;9.746;2022-12-07T08:30:28;4.57;;;2.27;;
4766;SDS011;2397;53.576;9.746;2022-12-07T08:32:55;3.83;;;2.03;;
4766;SDS011;2397;53.576;9.746;2022-12-07T08:35:22;2.10;;;1.90;;
4766;SDS011;2397;53.576;9.746;2022-12-07T08:37:49;8.80;;;2.77;;
4766;SDS011;2397;53.576;9.746;2022-12-07T08:40:15;2.70;;;2.27;;
4766;SDS011;2397;53.576;9.746;2022-12-07T08:42:42;3.50;;;2.33;;
4766;SDS011;2397;53.576;9.746;2022-12-07T08:45:11;4.30;;;2.20;;
4766;SDS011;2397;53.576;9.746;2022-12-07T08:47:41;6.73;;;2.20;;
4766;SDS011;2397;53.576;9.746;2022-12-07T08:50:30;4.07;;;2.27;;
4766;SDS011;2397;53.576;9.746;2022-12-07T08:52:59;2.00;;;1.67;;
4766;SDS011;2397;53.576;9.746;2022-12-07T08:55:26;10.23;;;2.10;;
4766;SDS011;2397;53.576;9.746;2022-12-07T08:57:54;5.57;;;2.13;;
4766;SDS011;2397;53.576;9.746;2022-12-07T09:00:21;8.83;;;2.40;;
4766;SDS011;2397;53.576;9.746;2022-12-07T09:02:48;4.47;;;2.40;;
4766;SDS011;2397;53.576;9.746;2022-12-07T09:05:14;5.33;;;2.43;;
4766;SDS011;2397;53.576;9.746;2022-12-07T09:07:43;3.67;;;1.93;;
4766;SDS011;2397;53.576;9.746;2022-12-07T09:10:12;5.07;;;2.10;;
4766;SDS011;2397;53.576;9.746;2022-12-07T09:12:38;2.63;;;2.03;;
4766;SDS011;2397;53.576;9.746;2022-12-07T09:15:05;4.83;;;2.13;;
4766;SDS011;2397;53.576;9.746;2022-12-07T09:17:32;6.30;;;3.47;;
4766;SDS011;2397;53.576;9.746;2022-12-07T09:19:59;4.07;;;1.90;;
4766;SDS011;2397;53.576;9.746;2022-12-07T09:22:30;4.13;;;1.67;;
4766;SDS011;2397;53.576;9.746;2022-12-07T09:24:57;3.20;;;2.20;;
4766;SDS011;2397;53.576;9.746;2022-12-07T09:27:24;3.03;;;1.57;;
4766;SDS011;2397;53.576;9.746;2022-12-07T09:29:51;2.70;;;1.90;;
4766;SDS011;2397;53.576;9.746;2022-12-07T09:32:17;2.80;;;1.73;;
4766;SDS011;2397;53.576;9.746;2022-12-07T09:34:44;5.63;;;2.10;;
4766;SDS011;2397;53.576;9.746;2022-12-07T09:37:10;3.63;;;2.03;;
4766;SDS011;2397;53.576;9.746;2022-12-07T09:39:40;7.00;;;1.83;;
4766;SDS011;2397;53.576;9.746;2022-12-07T09:42:19;4.40;;;1.70;;
4766;SDS011;2397;53.576;9.746;2022-12-07T09:44:53;3.60;;;1.93;;
4766;SDS011;2397;53.576;9.746;2022-12-07T09:47:20;5.53;;;2.13;;
4766;SDS011;2397;53.576;9.746;2022-12-07T09:49:46;6.60;;;3.07;;
4766;SDS011;2397;53.576;9.746;2022-12-07T09:52:25;2.93;;;1.80;;
4766;SDS011;2397;53.576;9.746;2022-12-07T09:55:03;5.03;;;1.70;;
4766;SDS011;2397;53.576;9.746;2022-12-07T09:57:36;1.83;;;1.70;;
4766;SDS011;2397;53.576;9.746;2022-12-07T10:00:04;2.70;;;1.57;;
4766;SDS011;2397;53.576;9.746;2022-12-07T10:02:37;5.43;;;1.60;;
4766;SDS011;2397;53.576;9.746;2022-12-07T10:05:06;3.13;;;1.67;;
4766;SDS011;2397;53.576;9.746;2022-12-07T10:07:34;3.57;;;1.80;;
4766;SDS011;2397;53.576;9.746;2022-12-07T10:10:02;7.07;;;2.30;;
4766;SDS011;2397;53.576;9.746;2022-12-07T10:12:29;4.40;;;1.70;;
4766;SDS011;2397;53.576;9.746;2022-12-07T10:14:57;2.80;;;1.50;;
4766;SDS011;2397;53.576;9.746;2022-12-07T10:17:37;5.33;;;1.60;;
4766;SDS011;2397;53.576;9.746;2022-12-07T10:22:58;3.47;;;1.40;;
4766;SDS011;2397;53.576;9.746;2022-12-07T10:25:38;4.80;;;1.13;;
4766;SDS011;2397;53.576;9.746;2022-12-07T10:30:33;2.50;;;1.40;;
4766;SDS011;2397;53.576;9.746;2022-12-07T10:41:24;19.93;;;1.80;;
4766;SDS011;2397;53.576;9.746;2022-12-07T10:43:52;5.77;;;1.63;;
4766;SDS011;2397;53.576;9.746;2022-12-07T10:46:37;6.67;;;1.77;;
4766;SDS011;2397;53.576;9.746;2022-12-07T11:00:49;4.20;;;1.47;;
4766;SDS011;2397;53.576;9.746;2022-12-07T11:06:16;3.47;;;1.70;;
4766;SDS011;2397;53.576;9.746;2022-12-07T11:08:56;3.47;;;1.80;;
4766;SDS011;2397;53.576;9.746;2022-12-07T11:11:32;3.63;;;1.80;;
4766;SDS011;2397;53.576;9.746;2022-12-07T11:14:03;4.93;;;1.70;;
4766;SDS011;2397;53.576;9.746;2022-12-07T11:16:50;4.03;;;1.67;;
4766;SDS011;2397;53.576;9.746;2022-12-07T11:19:44;2.87;;;1.30;;
4766;SDS011;2397;53.576;9.746;2022-12-07T11:22:19;3.33;;;1.57;;
4766;SDS011;2397;53.576;9.746;2022-12-07T11:30:48;5.97;;;1.87;;
4766;SDS011;2397;53.576;9.746;2022-12-07T11:33:30;3.17;;;1.50;;
4766;SDS011;2397;53.576;9.746;2022-12-07T11:39:15;2.47;;;1.20;;
4766;SDS011;2397;53.576;9.746;2022-12-07T11:41:44;5.90;;;1.60;;
4766;SDS011;2397;53.576;9.746;2022-12-07T11:44:26;12.97;;;2.27;;
4766;SDS011;2397;53.576;9.746;2022-12-07T11:47:30;5.13;;;1.83;;
4766;SDS011;2397;53.576;9.746;2022-12-07T11:50:03;5.00;;;1.80;;
4766;SDS011;2397;53.576;9.746;2022-12-07T11:53:01;9.90;;;1.80;;
4766;SDS011;2397;53.576;9.746;2022-12-07T12:01:14;4.20;;;1.70;;
4766;SDS011;2397;53.576;9.746;2022-12-07T12:03:47;2.87;;;1.63;;
4766;SDS011;2397;53.576;9.746;2022-12-07T12:06:19;4.33;;;1.87;;
4766;SDS011;2397;53.576;9.746;2022-12-07T12:08:48;6.37;;;1.60;;
4766;SDS011;2397;53.576;9.746;2022-12-07T12:20:01;7.63;;;3.47;;
4766;SDS011;2397;53.576;9.746;2022-12-07T12:22:39;8.93;;;2.03;;
4766;SDS011;2397;53.576;9.746;2022-12-07T12:25:20;5.50;;;2.63;;
4766;SDS011;2397;53.576;9.746;2022-12-07T12:27:50;8.13;;;2.60;;
4766;SDS011;2397;53.576;9.746;2022-12-07T12:30:24;4.00;;;1.60;;
4766;SDS011;2397;53.576;9.746;2022-12-07T12:33:00;4.30;;;1.80;;
4766;SDS011;2397;53.576;9.746;2022-12-07T12:36:04;3.07;;;1.90;;
4766;SDS011;2397;53.576;9.746;2022-12-07T12:51:54;5.03;;;2.13;;
4766;SDS011;2397;53.576;9.746;2022-12-07T12:54:24;3.17;;;1.90;;
4766;SDS011;2397;53.576;9.746;2022-12-07T12:59:36;6.20;;;1.73;;
4766;SDS011;2397;53.576;9.746;2022-12-07T13:02:27;10.93;;;2.07;;
4766;SDS011;2397;53.576;9.746;2022-12-07T13:05:25;12.83;;;1.70;;
4766;SDS011;2397;53.576;9.746;2022-12-07T13:10:42;7.17;;;2.00;;
4766;SDS011;2397;53.576;9.746;2022-12-07T13:18:36;5.33;;;1.97;;
4766;SDS011;2397;53.576;9.746;2022-12-07T13:26:22;6.83;;;1.80;;
4766;SDS011;2397;53.576;9.746;2022-12-07T13:28:58;2.17;;;1.70;;
4766;SDS011;2397;53.576;9.746;2022-12-07T13:31:36;8.77;;;1.80;;
4766;SDS011;2397;53.576;9.746;2022-12-07T13:37:08;11.23;;;2.10;;
4766;SDS011;2397;53.576;9.746;2022-12-07T13:39:45;9.33;;;1.80;;
4766;SDS011;2397;53.576;9.746;2022-12-07T13:42:18;6.00;;;2.13;;
4766;SDS011;2397;53.576;9.746;2022-12-07T13:44:53;5.73;;;2.03;;
4766;SDS011;2397;53.576;9.746;2022-12-07T13:50:30;7.13;;;2.03;;
4766;SDS011;2397;53.576;9.746;2022-12-07T13:52:58;5.03;;;2.10;;
4766;SDS011;2397;53.576;9.746;2022-12-07T13:55:26;1.43;;;1.20;;
4766;SDS011;2397;53.576;9.746;2022-12-07T13:57:54;2.73;;;1.30;;
4766;SDS011;2397;53.576;9.746;2022-12-07T14:00:26;2.80;;;1.33;;
4766;SDS011;2397;53.576;9.746;2022-12-07T14:03:02;6.57;;;1.87;;
4766;SDS011;2397;53.576;9.746;2022-12-07T14:05:48;3.47;;;1.43;;
4766;SDS011;2397;53.576;9.746;2022-12-07T14:09:05;3.97;;;1.60;;
4766;SDS011;2397;53.576;9.746;2022-12-07T14:11:33;3.40;;;1.40;;
4766;SDS011;2397;53.576;9.746;2022-12-07T14:14:02;4.17;;;1.60;;
4766;SDS011;2397;53.576;9.746;2022-12-07T14:16:31;7.00;;;1.70;;
4766;SDS011;2397;53.576;9.746;2022-12-07T14:19:00;4.10;;;1.80;;
4766;SDS011;2397;53.576;9.746;2022-12-07T14:21:30;2.33;;;1.13;;
4766;SDS011;2397;53.576;9.746;2022-12-07T14:26:33;3.47;;;1.37;;
4766;SDS011;2397;53.576;9.746;2022-12-07T14:31:51;7.20;;;1.77;;
4766;SDS011;2397;53.576;9.746;2022-12-07T14:34:22;1.63;;;1.30;;
4766;SDS011;2397;53.576;9.746;2022-12-07T14:36:49;5.37;;;1.50;;
4766;SDS011;2397;53.576;9.746;2022-12-07T14:39:16;4.33;;;1.17;;
4766;SDS011;2397;53.576;9.746;2022-12-07T14:41:43;1.83;;;1.10;;
4766;SDS011;2397;53.576;9.746;2022-12-07T14:44:19;5.00;;;2.17;;
4766;SDS011;2397;53.576;9.746;2022-12-07T14:46:53;2.60;;;1.20;;
4766;SDS011;2397;53.576;9.746;2022-12-07T14:49:39;4.53;;;1.43;;
4766;SDS011;2397;53.576;9.746;2022-12-07T14:52:08;4.50;;;1.90;;
4766;SDS011;2397;53.576;9.746;2022-12-07T14:55:00;2.63;;;1.30;;
4766;SDS011;2397;53.576;9.746;2022-12-07T14:57:27;6.07;;;1.40;;
4766;SDS011;2397;53.576;9.746;2022-12-07T14:59:54;2.87;;;1.60;;
4766;SDS011;2397;53.576;9.746;2022-12-07T15:02:20;9.47;;;1.70;;
4766;SDS011;2397;53.576;9.746;2022-12-07T15:04:46;2.23;;;1.40;;
4766;SDS011;2397;53.576;9.746;2022-12-07T15:07:16;5.80;;;1.57;;
4766;SDS011;2397;53.576;9.746;2022-12-07T15:09:46;4.40;;;1.77;;
4766;SDS011;2397;53.576;9.746;2022-12-07T15:12:13;5.97;;;2.00;;
4766;SDS011;2397;53.576;9.746;2022-12-07T15:14:39;4.83;;;1.70;;
4766;SDS011;2397;53.576;9.746;2022-12-07T15:17:06;3.10;;;1.80;;
4766;SDS011;2397;53.576;9.746;2022-12-07T15:19:35;4.40;;;1.47;;
4766;SDS011;2397;53.576;9.746;2022-12-07T15:22:02;4.47;;;1.47;;
4766;SDS011;2397;53.576;9.746;2022-12-07T15:24:28;3.23;;;1.50;;
4766;SDS011;2397;53.576;9.746;2022-12-07T15:26:55;2.37;;;1.50;;
4766;SDS011;2397;53.576;9.746;2022-12-07T15:29:21;3.10;;;1.40;;
4766;SDS011;2397;53.576;9.746;2022-12-07T15:31:49;2.13;;;1.80;;
4766;SDS011;2397;53.576;9.746;2022-12-07T15:34:23;6.90;;;1.50;;
4766;SDS011;2397;53.576;9.746;2022-12-07T15:36:51;3.87;;;1.40;;
4766;SDS011;2397;53.576;9.746;2022-12-07T15:39:17;7.03;;;1.40;;
4766;SDS011;2397;53.576;9.746;2022-12-07T15:41:43;2.47;;;1.43;;
4766;SDS011;2397;53.576;9.746;2022-12-07T15:44:11;2.93;;;1.10;;
4766;SDS011;2397;53.576;9.746;2022-12-07T15:46:57;4.43;;;1.50;;
4766;SDS011;2397;53.576;9.746;2022-12-07T15:49:24;5.57;;;1.47;;
4766;SDS011;2397;53.576;9.746;2022-12-07T15:51:50;5.10;;;1.70;;
4766;SDS011;2397;53.576;9.746;2022-12-07T15:54:19;5.17;;;2.00;;
4766;SDS011;2397;53.576;9.746;2022-12-07T15:56:49;4.43;;;2.10;;
4766;SDS011;2397;53.576;9.746;2022-12-07T15:59:16;2.30;;;1.70;;
4766;SDS011;2397;53.576;9.746;2022-12-07T16:01:42;4.03;;;1.80;;
4766;SDS011;2397;53.576;9.746;2022-12-07T16:04:09;4.17;;;1.97;;
4766;SDS011;2397;53.576;9.746;2022-12-07T16:06:36;5.10;;;2.53;;
4766;SDS011;2397;53.576;9.746;2022-12-07T16:09:03;9.83;;;3.70;;
4766;SDS011;2397;53.576;9.746;2022-12-07T16:11:29;8.40;;;2.87;;
4766;SDS011;2397;53.576;9.746;2022-12-07T16:13:56;6.90;;;2.60;;
4766;SDS011;2397;53.576;9.746;2022-12-07T16:16:22;7.00;;;2.57;;
4766;SDS011;2397;53.576;9.746;2022-12-07T16:18:50;3.80;;;2.20;;
4766;SDS011;2397;53.576;9.746;2022-12-07T16:21:17;5.97;;;2.23;;
4766;SDS011;2397;53.576;9.746;2022-12-07T16:23:50;4.53;;;2.40;;
4766;SDS011;2397;53.576;9.746;2022-12-07T16:26:17;7.87;;;2.63;;
4766;SDS011;2397;53.576;9.746;2022-12-07T16:28:47;4.40;;;2.30;;
4766;SDS011;2397;53.576;9.746;2022-12-07T16:31:16;4.23;;;2.23;;
4766;SDS011;2397;53.576;9.746;2022-12-07T16:33:44;5.23;;;2.60;;
4766;SDS011;2397;53.576;9.746;2022-12-07T16:36:11;8.60;;;2.83;;
4766;SDS011;2397;53.576;9.746;2022-12-07T16:38:40;2.13;;;2.03;;
4766;SDS011;2397;53.576;9.746;2022-12-07T16:41:07;4.87;;;2.70;;
4766;SDS011;2397;53.576;9.746;2022-12-07T16:43:34;6.20;;;2.90;;
4766;SDS011;2397;53.576;9.746;2022-12-07T16:46:00;6.10;;;3.17;;
4766;SDS011;2397;53.576;9.746;2022-12-07T16:48:27;7.03;;;3.40;;
4766;SDS011;2397;53.576;9.746;2022-12-07T16:50:53;5.70;;;3.63;;
4766;SDS011;2397;53.576;9.746;2022-12-07T16:53:20;7.77;;;4.83;;
4766;SDS011;2397;53.576;9.746;2022-12-07T16:55:49;5.80;;;4.13;;
4766;SDS011;2397;53.576;9.746;2022-12-07T16:58:16;10.60;;;4.23;;
4766;SDS011;2397;53.576;9.746;2022-12-07T17:00:43;9.80;;;4.67;;
4766;SDS011;2397;53.576;9.746;2022-12-07T17:03:10;8.63;;;5.13;;
4766;SDS011;2397;53.576;9.746;2022-12-07T17:05:45;9.00;;;5.30;;
4766;SDS011;2397;53.576;9.746;2022-12-07T17:08:12;9.60;;;4.87;;
4766;SDS011;2397;53.576;9.746;2022-12-07T17:10:40;8.17;;;5.80;;
4766;SDS011;2397;53.576;9.746;2022-12-07T17:13:08;9.23;;;4.90;;
4766;SDS011;2397;53.576;9.746;2022-12-07T17:16:00;8.43;;;6.20;;
4766;SDS011;2397;53.576;9.746;2022-12-07T17:18:32;8.87;;;5.73;;
4766;SDS011;2397;53.576;9.746;2022-12-07T17:21:01;12.17;;;5.90;;
4766;SDS011;2397;53.576;9.746;2022-12-07T17:23:32;8.23;;;5.80;;
4766;SDS011;2397;53.576;9.746;2022-12-07T17:26:10;6.97;;;4.80;;
4766;SDS011;2397;53.576;9.746;2022-12-07T17:28:41;8.07;;;5.63;;
4766;SDS011;2397;53.576;9.746;2022-12-07T17:31:08;7.97;;;5.50;;
4766;SDS011;2397;53.576;9.746;2022-12-07T17:33:36;10.40;;;6.40;;
4766;SDS011;2397;53.576;9.746;2022-12-07T17:36:09;9.13;;;6.40;;
4766;SDS011;2397;53.576;9.746;2022-12-07T17:38:39;13.17;;;7.50;;
4766;SDS011;2397;53.576;9.746;2022-12-07T17:41:13;8.30;;;6.30;;